This is the latest recevied weather packets stored in our database for station/object HB9CYX-13. If no packets are shown the sender has not sent any weather packets the latest 10 day(s).
| Time | Temp. | Humidity | Pressure | Rain* | Wind** | Luminosity | Snow |
|---|---|---|---|---|---|---|---|
| 1777981981 | 16.67° C | 69% | 1010.1 hPa | 0 mm | - | - | - |
| 1777981243 | 16.11° C | 72% | 1010.4 hPa | 0.25 mm | - | - | - |
| 1777980506 | 15° C | 78% | 1010.6 hPa | 0.51 mm | - | - | - |
| 1777979769 | 15° C | 77% | 1010.6 hPa | 0.51 mm | - | - | - |
| 1777979032 | 15° C | 76% | 1010.7 hPa | 0.51 mm | - | - | - |
| 1777978295 | 14.44° C | 80% | 1010.8 hPa | 0.25 mm | - | - | - |
| 1777977558 | 13.33° C | 82% | 1011.3 hPa | 0.25 mm | - | - | - |
| 1777976820 | 13.33° C | 81% | 1011.4 hPa | 0 mm | - | - | - |
| 1777976083 | 13.89° C | 77% | 1011.2 hPa | 0 mm | - | - | - |
| 1777975346 | 13.89° C | 78% | 1011.2 hPa | 0 mm | - | - | - |
| 1777974609 | 13.89° C | 74% | 1011.3 hPa | 0 mm | - | - | - |
| 1777973872 | 13.89° C | 76% | 1011.1 hPa | 0 mm | - | - | - |
| 1777973134 | 13.33° C | 77% | 1011.2 hPa | 0 mm | - | - | - |
| 1777972397 | 13.33° C | 78% | 1011.1 hPa | 0 mm | - | - | - |
| 1777971660 | 12.78° C | 80% | 1011.2 hPa | 0 mm | - | - | - |
| 1777970923 | 12.78° C | 81% | 1011.4 hPa | 0 mm | - | - | - |
| 1777970186 | 12.78° C | 82% | 1011.4 hPa | 0 mm | - | - | - |
| 1777969449 | 12.78° C | 83% | 1011.6 hPa | 0 mm | - | - | - |
| 1777968711 | 12.22° C | 83% | 1011.5 hPa | 0.25 mm | - | - | - |
| 1777967974 | 12.22° C | 86% | 1011.8 hPa | 0.25 mm | - | - | - |
| 1777967237 | 11.67° C | 87% | 1012.1 hPa | 0.25 mm | - | - | - |
| 1777966500 | 11.11° C | 90% | 1012.5 hPa | 0.25 mm | - | - | - |
| 1777965762 | 10.56° C | 91% | 1012.6 hPa | 0.25 mm | - | - | - |
| 1777965025 | 10.56° C | 90% | 1012.6 hPa | 0 mm | - | - | - |
| 1777964288 | 10.56° C | 89% | 1012.7 hPa | 0 mm | - | - | - |
* Rain latest hour (hover to see other rain measurements)
** Current wind speed in m/s (hover to see current wind gust speed)